Weather at Furnace Creek Airport

Public forecast

Using degrees Fahrenheit for public forecast. Weather courtesy of forecast.io.

Closest aviation weather report (METAR) to Furnace Creek Airport

Closest report is Desert Rock Airport, 42.0 nm (77.7 km) ENE. Retrieved 2021/08/03 20:53 UTC (37 minutes ago):

KDRA 032053Z AUTO VRB03KT 10SM CLR 39/02 A3006 RMK AO2 SLP117 T03940022 58015

Closest aviation forecast (TAF) to Furnace Creek Airport

Forecast is more than 12 hours old.

Closest forecast is Desert Rock Airport, 42.0 nm (77.7 km) ENE. Retrieved 2011/12/07 06:36 UTC (10 years ago):

TAF KDRA 070532Z 0706/0806 VRB04KT P6SM SKC